Time;durP1;ratioP1;P1;durP2;ratioP2;P2;SDS_P1;SDS_P2;PMS_P1;PMS_P2;Temp;Humidity;BMP_temperature;BMP_pressure;BME280_temperature;BME280_humidity;BME280_pressure;Samples;Min_cycle;Max_cycle;Signal;HPM_P1;HPM_P2
2023/02/07 00:00:19;;;;;;;8.70;4.53;;;;;;;-1.02;100.00;103909.25;6226109;28;20042;-73
2023/02/07 00:03:21;;;;;;;9.38;3.80;;;;;;;-1.05;100.00;103892.72;6227680;28;20329;-73
2023/02/07 00:06:25;;;;;;;19.00;4.97;;;;;;;-1.04;100.00;103897.09;6227703;28;20057;-75
2023/02/07 00:09:26;;;;;;;9.43;4.85;;;;;;;-1.06;100.00;103897.00;6203459;28;20062;-73
2023/02/07 00:12:29;;;;;;;10.98;5.07;;;;;;;-1.04;100.00;103894.53;6202890;28;20350;-80
2023/02/07 00:15:30;;;;;;;7.60;3.25;;;;;;;-1.04;100.00;103886.78;6203294;28;20372;-82
2023/02/07 00:18:32;;;;;;;8.35;4.32;;;;;;;-1.05;100.00;103870.38;6203505;28;20049;-82
2023/02/07 00:21:34;;;;;;;10.05;4.13;;;;;;;-1.02;100.00;103869.66;6203016;28;20051;-80
2023/02/07 00:24:35;;;;;;;10.32;4.18;;;;;;;-1.00;100.00;103869.69;6203163;28;20042;-82
2023/02/07 00:27:38;;;;;;;10.23;5.10;;;;;;;-1.05;100.00;103867.78;6203049;28;20137;-83
2023/02/07 00:30:39;;;;;;;11.00;5.15;;;;;;;-1.08;100.00;103867.69;6204374;28;20055;-81
2023/02/07 00:33:42;;;;;;;10.00;4.20;;;;;;;-1.07;100.00;103866.84;6221270;28;20058;-82
2023/02/07 00:36:43;;;;;;;5.88;3.55;;;;;;;-1.22;100.00;103873.03;6227505;28;20046;-82
2023/02/07 00:39:45;;;;;;;6.03;3.67;;;;;;;-1.19;100.00;103873.16;6226929;28;20056;-83
2023/02/07 00:42:47;;;;;;;8.45;3.70;;;;;;;-1.30;100.00;103878.72;6227316;28;20046;-82
2023/02/07 00:45:49;;;;;;;5.82;3.45;;;;;;;-1.46;100.00;103885.66;6226811;28;20054;-82
2023/02/07 00:48:51;;;;;;;7.93;3.22;;;;;;;-1.37;100.00;103874.06;6226938;28;20376;-82
2023/02/07 00:51:52;;;;;;;5.47;3.22;;;;;;;-1.39;100.00;103882.56;6226988;28;20164;-82
2023/02/07 00:54:53;;;;;;;4.75;2.88;;;;;;;-1.40;100.00;103881.69;6226939;28;20054;-82
2023/02/07 00:57:56;;;;;;;8.75;3.95;;;;;;;-1.36;100.00;103882.72;6226926;28;20329;-82
2023/02/07 01:00:57;;;;;;;6.72;3.30;;;;;;;-1.35;100.00;103877.63;6226352;28;20046;-82
2023/02/07 01:03:59;;;;;;;8.57;2.90;;;;;;;-1.38;100.00;103863.69;6212282;28;20060;-82
2023/02/07 01:07:00;;;;;;;7.53;2.95;;;;;;;-1.42;100.00;103866.94;6226680;28;20046;-82
2023/02/07 01:10:02;;;;;;;7.68;3.65;;;;;;;-1.41;100.00;103877.34;6226635;28;20050;-82
2023/02/07 01:13:04;;;;;;;4.13;2.70;;;;;;;-1.40;100.00;103870.50;6226672;28;20050;-82
2023/02/07 01:16:06;;;;;;;9.90;3.83;;;;;;;-1.40;100.00;103867.91;6226420;28;20329;-82
2023/02/07 01:19:09;;;;;;;6.20;3.70;;;;;;;-1.42;100.00;103862.66;6226500;28;20053;-82
2023/02/07 01:22:10;;;;;;;5.30;3.35;;;;;;;-1.40;100.00;103858.47;6225854;28;20061;-82
2023/02/07 01:25:12;;;;;;;4.57;3.30;;;;;;;-1.39;100.00;103861.94;6226313;28;20041;-82
2023/02/07 01:28:15;;;;;;;4.95;2.80;;;;;;;-1.42;100.00;103869.53;6226280;28;20053;-82
2023/02/07 01:31:16;;;;;;;4.88;3.38;;;;;;;-1.41;100.00;103872.19;6226551;28;20053;-82
2023/02/07 01:34:18;;;;;;;12.20;3.95;;;;;;;-1.66;100.00;103877.00;6225772;28;20049;-83
2023/02/07 01:37:19;;;;;;;4.35;2.75;;;;;;;-1.58;100.00;103881.72;6226563;28;20042;-82
2023/02/07 01:40:21;;;;;;;5.00;3.08;;;;;;;-1.50;100.00;103891.47;6225910;28;20060;-82
2023/02/07 01:43:25;;;;;;;5.53;2.97;;;;;;;-1.50;100.00;103876.00;6226196;28;20348;-82
2023/02/07 01:46:27;;;;;;;6.70;3.72;;;;;;;-1.63;100.00;103872.00;6226080;28;20344;-82
2023/02/07 01:49:32;;;;;;;11.43;3.58;;;;;;;-1.81;100.00;103878.03;6225954;28;20337;-82
2023/02/07 01:52:38;;;;;;;4.20;2.75;;;;;;;-1.72;100.00;103871.56;6226104;28;20455;-82
2023/02/07 01:55:40;;;;;;;4.45;2.97;;;;;;;-1.82;100.00;103880.53;6226368;28;20049;-82
2023/02/07 01:58:43;;;;;;;5.63;3.60;;;;;;;-1.72;100.00;103879.28;6226116;28;20054;-82
2023/02/07 02:01:46;;;;;;;4.53;2.97;;;;;;;-1.73;100.00;103886.13;6226258;28;20060;-82
2023/02/07 02:04:48;;;;;;;4.57;2.88;;;;;;;-1.70;100.00;103881.13;6205046;28;20054;-82
2023/02/07 02:07:49;;;;;;;13.27;3.45;;;;;;;-1.82;100.00;103890.84;6201619;28;20047;-82
2023/02/07 02:11:06;;;;;;;13.27;3.47;;;;;;;-1.75;100.00;103892.03;6201373;28;20376;-82
2023/02/07 02:14:23;;;;;;;9.95;3.65;;;;;;;-1.73;100.00;103898.13;6201724;28;20069;-82
2023/02/07 02:17:39;;;;;;;8.80;3.55;;;;;;;-1.88;100.00;103900.84;6201480;28;20057;-82
2023/02/07 02:21:15;;;;;;;7.95;3.90;;;;;;;-1.94;100.00;103896.28;6201592;28;20053;-82
2023/02/07 02:24:50;;;;;;;5.57;3.45;;;;;;;-1.89;100.00;103901.66;6201820;28;20061;-82
2023/02/07 02:28:18;;;;;;;7.93;3.50;;;;;;;-1.95;100.00;103898.78;6201050;28;20053;-81
2023/02/07 02:31:49;;;;;;;5.45;3.25;;;;;;;-1.88;100.00;103896.59;6201598;28;20572;-82
2023/02/07 02:34:58;;;;;;;6.15;3.33;;;;;;;-1.95;100.00;103878.16;6221396;28;20436;-82
2023/02/07 02:38:02;;;;;;;;;;;;;;;-1.93;100.00;103887.75;6230687;28;20054;-82
2023/02/07 02:41:10;;;;;;;5.30;3.08;;;;;;;-1.89;100.00;103881.94;6229818;28;19928;-82
2023/02/07 02:44:16;;;;;;;8.50;3.78;;;;;;;-1.86;100.00;103876.06;6230094;28;20061;-81
2023/02/07 02:47:19;;;;;;;8.20;3.45;;;;;;;-1.83;100.00;103877.06;6229802;28;20049;-82
2023/02/07 02:50:25;;;;;;;16.92;5.63;;;;;;;-1.88;100.00;103875.97;6230070;28;20058;-82
2023/02/07 02:53:26;;;;;;;13.93;5.43;;;;;;;-1.85;100.00;103875.25;6229495;28;20395;-82
2023/02/07 02:57:04;;;;;;;14.70;6.15;;;;;;;-1.81;100.00;103872.00;6229737;28;20061;-81
2023/02/07 03:00:23;;;;;;;9.85;4.97;;;;;;;-1.82;100.00;103865.06;6197913;28;20046;-81
2023/02/07 03:03:41;;;;;;;13.40;5.82;;;;;;;-1.90;100.00;103854.41;6228060;28;20483;-81
2023/02/07 03:06:56;;;;;;;7.40;3.78;;;;;;;-1.87;100.00;103848.50;6204927;28;20369;-82
2023/02/07 03:10:07;;;;;;;10.77;5.32;;;;;;;-1.85;100.00;103846.88;6204665;28;20042;-81
2023/02/07 03:13:17;;;;;;;9.50;4.40;;;;;;;-1.86;100.00;103848.59;6205043;28;20054;-82
2023/02/07 03:16:23;;;;;;;11.52;5.07;;;;;;;-1.85;100.00;103845.19;6204649;28;20046;-81
2023/02/07 03:19:29;;;;;;;9.05;4.50;;;;;;;-1.86;100.00;103845.13;6204713;28;20082;-81
2023/02/07 03:22:33;;;;;;;8.32;4.18;;;;;;;-1.83;100.00;103846.13;6204508;28;20061;-81
2023/02/07 03:25:36;;;;;;;8.88;4.45;;;;;;;-1.85;100.00;103842.63;6203464;28;20421;-81
2023/02/07 03:28:40;;;;;;;6.47;3.45;;;;;;;-1.88;100.00;103842.44;6224522;28;20364;-81
2023/02/07 03:31:47;;;;;;;8.35;4.40;;;;;;;-1.88;100.00;103847.59;6228760;28;20080;-80
2023/02/07 03:34:53;;;;;;;5.43;3.42;;;;;;;-1.90;100.00;103851.81;6228327;28;20054;-81
2023/02/07 03:37:58;;;;;;;13.20;6.07;;;;;;;-1.90;100.00;103846.66;6228122;28;20054;-80
2023/02/07 03:41:06;;;;;;;7.18;3.53;;;;;;;-1.91;100.00;103852.59;6228503;28;20049;-81
2023/02/07 03:44:10;;;;;;;10.50;5.43;;;;;;;-1.95;100.00;103839.50;6213039;28;20069;-81
2023/02/07 03:47:12;;;;;;;11.15;4.13;;;;;;;-1.97;100.00;103833.41;6203086;28;20051;-81
2023/02/07 03:50:14;;;;;;;15.57;5.57;;;;;;;-1.99;100.00;103828.19;6203440;28;20053;-80
2023/02/07 03:53:16;;;;;;;11.32;5.20;;;;;;;-2.01;100.00;103827.22;6203885;28;20081;-80
2023/02/07 03:56:18;;;;;;;7.65;4.80;;;;;;;-2.03;100.00;103813.38;6203808;28;20050;-80
2023/02/07 03:59:19;;;;;;;12.77;5.03;;;;;;;-2.04;100.00;103803.91;6203548;28;20353;-81
2023/02/07 04:02:20;;;;;;;11.65;5.15;;;;;;;-2.06;100.00;103802.91;6203655;28;20546;-80
2023/02/07 04:05:21;;;;;;;15.73;5.35;;;;;;;-2.07;100.00;103801.16;6203986;28;20058;-80
2023/02/07 04:08:24;;;;;;;9.07;4.40;;;;;;;-2.03;100.00;103800.50;6203203;28;20047;-80
2023/02/07 04:11:25;;;;;;;7.72;4.85;;;;;;;-2.03;100.00;103802.19;6203431;28;20061;-80
2023/02/07 04:14:27;;;;;;;6.22;3.33;;;;;;;-2.06;100.00;103793.50;6203338;28;20364;-80
2023/02/07 04:17:29;;;;;;;7.60;3.95;;;;;;;-2.06;100.00;103796.06;6203050;28;20057;-80
2023/02/07 04:20:30;;;;;;;8.75;4.43;;;;;;;-2.08;100.00;103800.28;6203228;28;20347;-80
2023/02/07 04:23:33;;;;;;;10.65;4.43;;;;;;;-2.08;100.00;103805.44;6203386;28;20057;-79
2023/02/07 04:26:35;;;;;;;12.45;4.63;;;;;;;-2.08;100.00;103796.81;6203285;28;20078;-80
2023/02/07 04:29:36;;;;;;;9.82;4.50;;;;;;;-2.05;100.00;103795.25;6202601;28;20322;-80
2023/02/07 04:32:37;;;;;;;13.85;5.22;;;;;;;-2.06;100.00;103802.91;6202864;28;20058;-80
2023/02/07 04:35:39;;;;;;;13.98;6.03;;;;;;;-2.05;100.00;103807.25;6214285;28;20046;-80
2023/02/07 04:38:42;;;;;;;9.32;5.00;;;;;;;-2.09;100.00;103793.38;6226936;28;20053;-80
2023/02/07 04:41:43;;;;;;;11.52;5.05;;;;;;;-2.10;100.00;103801.88;6234509;28;20045;-79
2023/02/07 04:44:44;;;;;;;9.38;5.03;;;;;;;-2.05;100.00;103802.97;6250507;28;20053;-79
2023/02/07 04:47:45;;;;;;;9.23;3.70;;;;;;;-2.02;100.00;103812.56;6250233;28;20045;-79
2023/02/07 04:50:47;;;;;;;10.25;5.00;;;;;;;-2.02;100.00;103806.53;6244257;28;20053;-79
2023/02/07 04:53:50;;;;;;;10.75;5.20;;;;;;;-2.08;100.00;103808.00;6245120;28;20053;-80
2023/02/07 04:56:51;;;;;;;7.97;4.43;;;;;;;-2.09;100.00;103803.69;6231359;28;20038;-79
2023/02/07 04:59:53;;;;;;;7.60;4.85;;;;;;;-2.13;100.00;103798.31;6249927;28;20064;-79
2023/02/07 05:02:54;;;;;;;12.48;5.47;;;;;;;-2.18;100.00;103792.94;6241983;28;21323;-79
2023/02/07 05:05:56;;;;;;;8.68;4.20;;;;;;;-2.18;100.00;103803.25;6234517;28;20050;-79
2023/02/07 05:08:58;;;;;;;9.77;4.38;;;;;;;-2.22;100.00;103796.16;6200901;28;20049;-79
2023/02/07 05:11:59;;;;;;;9.00;4.82;;;;;;;-2.25;100.00;103800.28;6201206;28;20050;-79
2023/02/07 05:15:01;;;;;;;11.07;5.63;;;;;;;-2.27;100.00;103800.22;6201343;28;20452;-79
2023/02/07 05:18:03;;;;;;;7.47;4.15;;;;;;;-2.33;100.00;103805.91;6200878;28;20050;-79
2023/02/07 05:21:05;;;;;;;9.35;4.72;;;;;;;-2.42;100.00;103809.75;6201162;28;20105;-79
2023/02/07 05:24:08;;;;;;;11.23;4.95;;;;;;;-2.43;100.00;103807.97;6201131;28;20054;-79
2023/02/07 05:27:09;;;;;;;7.82;3.75;;;;;;;-2.41;100.00;103814.97;6200663;28;20421;-79
2023/02/07 05:30:11;;;;;;;10.98;5.20;;;;;;;-2.41;100.00;103812.38;6200680;28;20047;-79
2023/02/07 05:33:13;;;;;;;8.60;4.38;;;;;;;-2.40;100.00;103814.19;6200696;28;20057;-78
2023/02/07 05:36:14;;;;;;;10.80;4.07;;;;;;;-2.38;100.00;103804.81;6201402;28;20046;-78
2023/02/07 05:39:17;;;;;;;9.10;5.45;;;;;;;-2.37;100.00;103818.56;6200405;28;20058;-79
2023/02/07 05:42:18;;;;;;;10.38;4.40;;;;;;;-2.42;100.00;103825.19;6167318;28;996950;-79
2023/02/07 05:45:20;;;;;;;10.48;5.60;;;;;;;-2.45;100.00;103835.31;6201626;28;20455;-78
2023/02/07 05:48:22;;;;;;;7.60;4.03;;;;;;;-2.51;100.00;103838.47;6201588;28;20600;-78
2023/02/07 05:51:23;;;;;;;9.93;5.53;;;;;;;-2.53;100.00;103841.81;6201462;28;20057;-78
2023/02/07 05:54:26;;;;;;;11.50;4.65;;;;;;;-2.57;100.00;103838.19;6201797;28;20083;-79
2023/02/07 05:57:27;;;;;;;8.15;4.20;;;;;;;-2.65;100.00;103850.66;6201485;28;20051;-78
2023/02/07 06:00:29;;;;;;;13.10;5.78;;;;;;;-2.64;100.00;103859.25;6201256;28;20050;-78
2023/02/07 06:03:30;;;;;;;10.52;5.28;;;;;;;-2.65;100.00;103858.38;6201703;28;20047;-78
2023/02/07 06:06:32;;;;;;;10.95;4.97;;;;;;;-2.62;100.00;103849.94;6202245;28;20053;-78
2023/02/07 06:09:34;;;;;;;13.15;5.22;;;;;;;-2.60;100.00;103844.06;6203148;28;20069;-79
2023/02/07 06:12:36;;;;;;;12.93;5.07;;;;;;;-2.59;100.00;103848.41;6216216;28;20054;-78
2023/02/07 06:15:37;;;;;;;16.38;6.20;;;;;;;-2.62;100.00;103844.78;6241458;28;20049;-78
2023/02/07 06:18:39;;;;;;;10.65;5.85;;;;;;;-2.62;100.00;103849.94;6240913;28;20490;-78
2023/02/07 06:21:40;;;;;;;6.97;4.65;;;;;;;-2.60;100.00;103851.78;6240928;28;20357;-77
2023/02/07 06:24:43;;;;;;;19.23;5.45;;;;;;;-2.65;100.00;103850.66;6241580;28;20165;-78
2023/02/07 06:27:44;;;;;;;15.88;6.63;;;;;;;-2.78;100.00;103855.09;6242071;28;20058;-77
2023/02/07 06:30:46;;;;;;;8.45;4.72;;;;;;;-2.72;100.00;103858.88;6238198;28;20061;-77
2023/02/07 06:33:47;;;;;;;13.77;5.25;;;;;;;-2.74;100.00;103864.75;6250619;28;20053;-77
2023/02/07 06:36:49;;;;;;;14.65;5.03;;;;;;;-2.76;100.00;103848.34;6205703;28;20046;-77
2023/02/07 06:39:51;;;;;;;10.38;5.55;;;;;;;-2.76;100.00;103858.66;6205251;28;20348;-78
2023/02/07 06:42:53;;;;;;;12.32;6.20;;;;;;;-2.72;100.00;103858.00;6205298;28;20057;-78
2023/02/07 06:45:54;;;;;;;7.60;4.05;;;;;;;-2.74;100.00;103855.34;6214870;28;20045;-78
2023/02/07 06:48:55;;;;;;;13.13;5.68;;;;;;;-2.72;100.00;103861.47;6240394;28;20049;-78
2023/02/07 06:51:56;;;;;;;10.70;5.70;;;;;;;-2.77;100.00;103862.91;6239603;28;20041;-78
2023/02/07 06:54:59;;;;;;;15.38;5.68;;;;;;;-2.74;100.00;103873.34;6241359;28;20045;-77
2023/02/07 06:58:00;;;;;;;9.38;4.95;;;;;;;-2.75;100.00;103881.00;6238774;28;20048;-78
2023/02/07 07:01:04;;;;;;;12.82;4.90;;;;;;;-2.73;100.00;103874.22;6236769;28;20054;-78
2023/02/07 07:04:05;;;;;;;18.83;6.43;;;;;;;-2.74;100.00;103882.75;6226245;28;20125;-78
2023/02/07 07:07:06;;;;;;;10.82;5.75;;;;;;;-2.82;100.00;103883.28;6204730;28;20053;-78
2023/02/07 07:10:10;;;;;;;9.45;5.30;;;;;;;-2.78;100.00;103889.44;6204634;28;20046;-78
2023/02/07 07:13:11;;;;;;;14.27;6.63;;;;;;;-2.78;100.00;103891.13;6204582;28;20353;-78
2023/02/07 07:16:13;;;;;;;14.48;6.25;;;;;;;-2.86;100.00;103886.47;6204902;28;20054;-78
2023/02/07 07:19:14;;;;;;;11.30;6.47;;;;;;;-2.82;100.00;103882.34;6204173;28;20081;-78
2023/02/07 07:22:16;;;;;;;16.25;6.65;;;;;;;-2.79;100.00;103895.41;6203205;28;20053;-78
2023/02/07 07:25:19;;;;;;;11.73;5.22;;;;;;;-2.75;100.00;103901.59;6220528;28;20045;-77
2023/02/07 07:28:20;;;;;;;12.18;5.97;;;;;;;-2.71;100.00;103890.66;6243988;28;20038;-78
2023/02/07 07:31:21;;;;;;;14.30;5.43;;;;;;;-2.69;100.00;103889.91;6241651;28;20042;-76
2023/02/07 07:34:23;;;;;;;11.82;6.30;;;;;;;-2.69;100.00;103887.34;6234535;28;20049;-76
2023/02/07 07:37:24;;;;;;;20.63;7.25;;;;;;;-2.65;100.00;103889.28;6224962;28;20049;-77
2023/02/07 07:40:27;;;;;;;11.10;5.97;;;;;;;-2.59;100.00;103884.47;6214253;28;20360;-76
2023/02/07 07:43:28;;;;;;;16.38;7.57;;;;;;;-2.61;100.00;103877.44;6217809;28;20062;-76
2023/02/07 07:46:30;;;;;;;14.50;6.82;;;;;;;-2.55;100.00;103878.63;6232548;28;20054;-77
2023/02/07 07:49:31;;;;;;;18.98;6.75;;;;;;;-2.50;100.00;103884.00;6252661;28;20041;-78
2023/02/07 07:52:33;;;;;;;15.60;6.90;;;;;;;-2.45;100.00;103892.88;6253094;28;20454;-80
2023/02/07 07:55:37;;;;;;;18.20;7.75;;;;;;;-2.41;100.00;103883.59;6252966;28;20053;-80
2023/02/07 07:58:38;;;;;;;18.35;5.72;;;;;;;-2.41;100.00;103889.63;6252265;28;20049;-77
2023/02/07 08:01:39;;;;;;;14.85;7.25;;;;;;;-2.35;100.00;103902.84;6252734;28;20140;-80
2023/02/07 08:04:41;;;;;;;17.40;6.97;;;;;;;-2.30;100.00;103895.34;6232822;28;20433;-79
2023/02/07 08:07:42;;;;;;;10.02;5.72;;;;;;;-2.23;100.00;103899.97;6224197;28;20046;-78
2023/02/07 08:10:45;;;;;;;12.05;6.50;;;;;;;-2.22;100.00;103900.91;6225484;28;20057;-79
2023/02/07 08:13:46;;;;;;;15.82;6.95;;;;;;;-2.15;100.00;103910.69;6227353;28;20049;-77
2023/02/07 08:16:48;;;;;;;12.32;5.75;;;;;;;-2.12;100.00;103900.53;6227539;28;20049;-78
2023/02/07 08:19:49;;;;;;;14.13;6.57;;;;;;;-2.11;100.00;103905.75;6226063;28;20437;-79
2023/02/07 08:22:50;;;;;;;12.20;5.32;;;;;;;-2.06;100.00;103903.41;6227471;28;20053;-80
2023/02/07 08:25:53;;;;;;;12.98;6.25;;;;;;;-2.02;100.00;103900.19;6227404;28;20050;-80
2023/02/07 08:28:54;;;;;;;16.50;6.95;;;;;;;-2.05;100.00;103894.88;6226866;28;20045;-79
2023/02/07 08:31:56;;;;;;;17.42;7.45;;;;;;;-2.01;100.00;103891.63;6226838;28;20046;-78
2023/02/07 08:34:57;;;;;;;14.55;5.60;;;;;;;-1.95;100.00;103899.69;6227270;28;20052;-82
2023/02/07 08:37:58;;;;;;;16.63;6.93;;;;;;;-1.92;100.00;103897.22;6220778;28;20059;-78
2023/02/07 08:41:01;;;;;;;14.55;5.57;;;;;;;-1.92;100.00;103881.78;6202175;28;20061;-77
2023/02/07 08:44:02;;;;;;;14.27;5.97;;;;;;;-1.90;100.00;103889.59;6212813;28;20046;-77
2023/02/07 08:47:04;;;;;;;14.77;6.25;;;;;;;-1.87;100.00;103892.31;6226666;28;20057;-77
2023/02/07 08:50:06;;;;;;;11.93;5.85;;;;;;;-1.83;100.00;103892.53;6227207;28;20433;-78
2023/02/07 08:53:08;;;;;;;14.27;6.43;;;;;;;-1.84;100.00;103898.50;6226491;28;20060;-78
2023/02/07 08:56:11;;;;;;;13.30;5.63;;;;;;;-1.79;100.00;103891.88;6226842;28;20056;-77
2023/02/07 08:59:12;;;;;;;18.42;6.93;;;;;;;-1.76;100.00;103893.72;6226193;28;20045;-77
2023/02/07 09:02:14;;;;;;;14.93;7.60;;;;;;;-1.71;100.00;103886.22;6226565;28;20456;-79
2023/02/07 09:05:15;;;;;;;12.45;6.15;;;;;;;-1.66;100.00;103892.47;6214963;28;20389;-77
2023/02/07 09:08:17;;;;;;;13.15;6.30;;;;;;;-1.61;100.00;103884.13;6201726;28;20356;-77
2023/02/07 09:11:20;;;;;;;13.98;6.47;;;;;;;-1.55;100.00;103876.69;6201984;28;20050;-76
2023/02/07 09:14:22;;;;;;;11.93;5.63;;;;;;;-1.52;100.00;103883.69;6202200;28;20125;-76
2023/02/07 09:17:23;;;;;;;12.07;5.93;;;;;;;-1.47;100.00;103876.16;6205564;28;20049;-76
2023/02/07 09:20:24;;;;;;;12.68;6.07;;;;;;;-1.45;100.00;103874.53;6226240;28;20086;-78
2023/02/07 09:23:26;;;;;;;16.13;6.05;;;;;;;-1.40;100.00;103871.38;6226479;28;20057;-77
2023/02/07 09:26:32;;;;;;;13.18;6.68;;;;;;;-1.39;100.00;103872.25;6226550;28;20133;-78
2023/02/07 09:29:33;;;;;;;9.95;4.88;;;;;;;-1.32;100.00;103882.03;6226131;28;20444;-78
2023/02/07 09:32:35;;;;;;;11.57;5.00;;;;;;;-1.26;100.00;103879.75;6226115;28;20344;-78
2023/02/07 09:35:37;;;;;;;11.15;5.78;;;;;;;-1.26;100.00;103878.88;6225695;28;20054;-78
2023/02/07 09:38:38;;;;;;;10.48;5.35;;;;;;;-1.22;100.00;103886.81;6225537;28;20046;-76
2023/02/07 09:41:49;;;;;;;13.23;6.22;;;;;;;-1.17;100.00;103882.75;6226222;28;20053;-78
2023/02/07 09:44:58;;;;;;;12.52;5.55;;;;;;;-1.14;100.00;103874.25;6228786;28;20062;-77
2023/02/07 09:48:04;;;;;;;11.18;5.57;;;;;;;-1.13;100.00;103863.13;6231094;28;20054;-77
2023/02/07 09:51:08;;;;;;;11.98;5.65;;;;;;;-1.08;100.00;103878.00;6231145;28;20064;-77
2023/02/07 09:54:18;;;;;;;15.00;5.35;;;;;;;-0.99;100.00;103874.06;6230899;28;20053;-75
2023/02/07 09:57:27;;;;;;;12.48;6.25;;;;;;;-0.96;100.00;103884.53;6230827;28;20049;-77
2023/02/07 10:00:31;;;;;;;13.80;6.05;;;;;;;-0.90;100.00;103883.13;6230738;28;20054;-76
2023/02/07 10:03:36;;;;;;;16.05;6.57;;;;;;;-0.90;100.00;103892.56;6229843;28;20321;-78
2023/02/07 10:06:44;;;;;;;11.57;6.10;;;;;;;-0.86;100.00;103885.03;6229995;28;20061;-77
2023/02/07 10:09:46;;;;;;;16.17;5.95;;;;;;;-0.78;100.00;103881.03;6230307;28;20046;-77
2023/02/07 10:13:06;;;;;;;10.15;5.28;;;;;;;-0.68;100.00;103886.63;6218680;28;20057;-78
2023/02/07 10:16:19;;;;;;;10.27;5.15;;;;;;;-0.61;100.00;103881.78;6206030;28;20046;-78
2023/02/07 10:19:34;;;;;;;12.63;6.10;;;;;;;-0.54;100.00;103877.78;6225253;28;20057;-78
2023/02/07 10:22:41;;;;;;;9.93;5.38;;;;;;;-0.50;100.00;103887.41;6229987;28;20433;-77
2023/02/07 10:25:56;;;;;;;13.20;6.10;;;;;;;-0.42;100.00;103888.63;6216005;28;20455;-77
2023/02/07 10:29:09;;;;;;;15.63;6.93;;;;;;;-0.35;100.00;103876.88;6205182;28;20433;-77
2023/02/07 10:32:14;;;;;;;11.82;6.47;;;;;;;-0.28;100.00;103877.16;6205944;28;20050;-77
2023/02/07 10:35:19;;;;;;;11.43;6.10;;;;;;;-0.24;100.00;103875.59;6205382;28;20050;-72
2023/02/07 10:38:29;;;;;;;12.93;6.20;;;;;;;-0.20;100.00;103876.63;6205501;28;20098;-77
2023/02/07 10:41:36;;;;;;;17.35;6.93;;;;;;;-0.12;100.00;103876.13;6205327;28;20046;-78
2023/02/07 10:44:39;;;;;;;21.65;7.70;;;;;;;-0.04;100.00;103876.44;6205824;28;20058;-79
2023/02/07 10:47:41;;;;;;;11.55;6.22;;;;;;;0.01;100.00;103874.06;6204964;28;20046;-79
2023/02/07 10:50:43;;;;;;;10.50;5.75;;;;;;;0.12;100.00;103883.13;6221626;28;20050;-78
2023/02/07 10:53:46;;;;;;;14.23;6.00;;;;;;;0.18;100.00;103875.59;6229733;28;20057;-78
2023/02/07 10:56:50;;;;;;;17.23;6.18;;;;;;;0.22;100.00;103882.66;6227992;28;20053;-77
2023/02/07 10:59:59;;;;;;;15.50;6.13;;;;;;;0.29;100.00;103879.50;6229123;28;20046;-80
2023/02/07 11:03:02;;;;;;;12.93;6.10;;;;;;;0.46;100.00;103875.00;6229356;28;20349;-78
2023/02/07 11:06:06;;;;;;;15.02;5.57;;;;;;;0.56;100.00;103869.34;6229709;28;20061;-77
2023/02/07 11:09:18;;;;;;;11.35;6.13;;;;;;;0.60;100.00;103866.06;6228714;28;20391;-77
2023/02/07 11:12:21;;;;;;;10.05;5.82;;;;;;;0.68;100.00;103872.41;6229090;28;20064;-77
2023/02/07 11:15:34;;;;;;;11.23;5.13;;;;;;;0.78;100.00;103872.75;6229361;28;20056;-80
2023/02/07 11:18:40;;;;;;;12.85;5.43;;;;;;;0.84;100.00;103878.16;6226402;28;20046;-80
2023/02/07 11:21:43;;;;;;;9.25;5.20;;;;;;;0.93;100.00;103873.31;6216795;28;20054;-79
2023/02/07 11:24:47;;;;;;;8.90;5.22;;;;;;;1.03;100.00;103865.06;6228938;28;20065;-79
2023/02/07 11:27:48;;;;;;;11.80;4.90;;;;;;;1.13;100.00;103861.97;6228628;28;20545;-79
2023/02/07 11:30:56;;;;;;;8.55;4.50;;;;;;;1.31;100.00;103872.09;6228720;28;20061;-78
2023/02/07 11:34:08;;;;;;;8.40;4.63;;;;;;;1.37;100.00;103864.56;6229256;28;20046;-80
2023/02/07 11:37:21;;;;;;;10.35;4.30;;;;;;;1.51;100.00;103868.50;6228450;28;20061;-79
2023/02/07 11:40:24;;;;;;;9.93;5.13;;;;;;;1.58;100.00;103874.78;6240870;28;20046;-79
2023/02/07 11:43:26;;;;;;;9.20;4.53;;;;;;;1.64;100.00;103868.94;6234120;28;20333;-79
2023/02/07 11:46:34;;;;;;;9.25;5.03;;;;;;;1.75;100.00;103847.72;6228087;28;20360;-79
2023/02/07 11:49:42;;;;;;;10.88;4.78;;;;;;;1.92;100.00;103857.78;6211347;28;20049;-80
2023/02/07 11:52:50;;;;;;;8.88;4.28;;;;;;;1.97;100.00;103844.13;6210414;28;20050;-80
2023/02/07 11:55:54;;;;;;;7.63;4.43;;;;;;;2.08;100.00;103843.56;6225437;28;20360;-80
2023/02/07 11:58:57;;;;;;;11.77;4.95;;;;;;;2.05;100.00;103844.38;6219008;28;20425;-80
2023/02/07 12:02:07;;;;;;;9.52;4.28;;;;;;;2.04;100.00;103840.00;6223336;28;20058;-79
2023/02/07 12:05:16;;;;;;;9.57;3.95;;;;;;;2.12;100.00;103837.66;6211038;28;20199;-80
2023/02/07 12:08:21;;;;;;;11.23;4.80;;;;;;;2.27;100.00;103832.94;6214920;28;20050;-80
2023/02/07 12:11:26;;;;;;;8.13;3.58;;;;;;;2.47;100.00;103826.63;6226546;28;20081;-80
2023/02/07 12:14:34;;;;;;;8.60;4.47;;;;;;;2.65;100.00;103828.03;6227185;28;20061;-80
2023/02/07 12:17:43;;;;;;;12.23;4.35;;;;;;;2.63;100.00;103824.47;6225889;28;20544;-80
2023/02/07 12:20:52;;;;;;;9.55;4.00;;;;;;;2.84;100.00;103824.22;6226714;28;20046;-80
2023/02/07 12:23:59;;;;;;;7.25;4.22;;;;;;;2.94;100.00;103818.44;6226821;28;20050;-80
2023/02/07 12:27:06;;;;;;;8.95;4.53;;;;;;;2.89;100.00;103820.91;6203141;28;20046;-81
2023/02/07 12:30:17;;;;;;;10.63;4.82;;;;;;;2.94;100.00;103821.03;6203030;28;20050;-72
2023/02/07 12:33:30;;;;;;;9.13;4.28;;;;;;;3.02;100.00;103812.63;6203024;28;20056;-72
2023/02/07 12:36:35;;;;;;;8.98;4.25;;;;;;;3.12;100.00;103815.47;6203233;28;20049;-72
2023/02/07 12:39:46;;;;;;;7.20;4.13;;;;;;;3.16;99.63;103819.94;6202754;28;20430;-72
2023/02/07 12:42:56;;;;;;;10.27;4.72;;;;;;;3.12;100.00;103818.97;6202709;28;20061;-73
2023/02/07 12:46:12;;;;;;;12.13;5.05;;;;;;;3.06;100.00;103813.59;6202759;28;20054;-72
2023/02/07 12:49:29;;;;;;;8.85;4.53;;;;;;;3.11;100.00;103813.72;6202612;28;20440;-72
2023/02/07 12:52:43;;;;;;;9.20;4.53;;;;;;;3.09;100.00;103815.38;6202418;28;20353;-72
2023/02/07 12:55:53;;;;;;;10.65;4.95;;;;;;;3.32;100.00;103806.50;6224028;28;20045;-73
2023/02/07 12:59:06;;;;;;;8.85;4.28;;;;;;;3.53;100.00;103801.84;6236474;28;20429;-73
2023/02/07 13:02:30;;;;;;;6.93;3.88;;;;;;;3.47;100.00;103788.69;6245682;28;20049;-73
2023/02/07 13:05:53;;;;;;;9.35;4.65;;;;;;;3.57;97.72;103787.19;6202004;28;20061;-72
2023/02/07 13:09:03;;;;;;;9.15;4.57;;;;;;;3.48;97.59;103780.03;6201895;28;20049;-74
2023/02/07 13:12:10;;;;;;;;;;;;;;;3.39;99.70;103777.22;6202771;28;20054;-74
2023/02/07 13:15:20;;;;;;;6.43;3.60;;;;;;;3.49;94.98;103768.81;6202750;28;19921;-72
2023/02/07 13:18:27;;;;;;;8.07;4.05;;;;;;;3.47;89.83;103772.22;6217823;28;20479;-73
2023/02/07 13:21:37;;;;;;;7.00;3.75;;;;;;;3.61;98.24;103768.22;6225624;28;20072;-73
2023/02/07 13:24:42;;;;;;;8.13;4.22;;;;;;;3.78;94.86;103766.91;6228315;28;20046;-73
2023/02/07 13:27:45;;;;;;;6.70;3.63;;;;;;;3.76;91.07;103765.13;6235632;28;20072;-73
2023/02/07 13:30:47;;;;;;;7.40;4.32;;;;;;;3.88;91.90;103762.81;6226259;28;20448;-73
2023/02/07 13:33:50;;;;;;;8.90;4.50;;;;;;;3.97;91.47;103763.00;6232952;28;20077;-73
2023/02/07 13:36:53;;;;;;;7.05;3.97;;;;;;;4.04;87.70;103756.22;6234924;28;20057;-73
2023/02/07 13:40:00;;;;;;;8.30;4.10;;;;;;;4.20;87.43;103755.72;6233233;28;20045;-73
2023/02/07 13:43:08;;;;;;;9.07;3.53;;;;;;;4.28;86.33;103761.97;6231057;28;20049;-73
2023/02/07 13:46:38;;;;;;;7.28;3.80;;;;;;;4.12;84.10;103756.38;6236584;28;20050;-74
2023/02/07 13:49:45;;;;;;;8.73;3.80;;;;;;;3.90;87.76;103749.81;6226876;28;20046;-73
2023/02/07 13:52:56;;;;;;;6.85;4.25;;;;;;;4.19;88.45;103755.69;6220532;28;20065;-75
2023/02/07 13:56:02;;;;;;;6.80;3.92;;;;;;;4.13;85.61;103753.81;6223323;28;20046;-74
2023/02/07 14:02:23;;;;;;;8.60;3.75;;;;;;;4.11;88.24;103754.63;6224668;28;20058;-74
2023/02/07 14:05:27;;;;;;;7.95;4.20;;;;;;;4.14;87.16;103763.41;6224622;28;21289;-75
2023/02/07 14:08:30;;;;;;;10.13;4.07;;;;;;;4.14;87.22;103759.91;6224969;28;20444;-74
2023/02/07 14:11:39;;;;;;;7.15;4.03;;;;;;;4.07;87.03;103761.50;6225469;28;20057;-75